createdAt,value
2022-09-21T00:01:36.592Z,8.63
2022-09-21T00:04:06.249Z,9.22
2022-09-21T00:06:35.788Z,9.23
2022-09-21T00:09:05.414Z,9.16
2022-09-21T00:11:35.232Z,9.24
2022-09-21T00:14:07.417Z,9.27
2022-09-21T00:16:35.788Z,9.29
2022-09-21T00:19:06.933Z,9.36
2022-09-21T00:21:35.975Z,9.35
2022-09-21T00:24:04.552Z,9.35
2022-09-21T00:26:33.292Z,9.19
2022-09-21T00:29:03.341Z,9.28
2022-09-21T00:31:32.643Z,9.19
2022-09-21T00:34:03.776Z,9.27
2022-09-21T00:36:33.340Z,9.23
2022-09-21T00:39:02.754Z,9.24
2022-09-21T00:41:33.488Z,9.26
2022-09-21T00:44:24.739Z,9.18
2022-09-21T00:46:55.169Z,9.05
2022-09-21T00:49:24.336Z,9.14
2022-09-21T00:51:54.479Z,9.12
2022-09-21T00:54:27.498Z,9.01
2022-09-21T00:56:59.923Z,8.23
2022-09-21T00:59:30.215Z,8.69
2022-09-21T01:02:00.182Z,8.73
2022-09-21T01:04:28.951Z,8.71
2022-09-21T01:07:01.511Z,8.69
2022-09-21T01:09:30.145Z,8.77
2022-09-21T01:12:11.331Z,8.62
2022-09-21T01:15:11.632Z,8.66
2022-09-21T01:17:47.329Z,8.66
2022-09-21T01:20:35.519Z,8.49
2022-09-21T01:23:18.359Z,8.78
2022-09-21T01:26:04.072Z,8.84
2022-09-21T01:28:55.039Z,8.95
2022-09-21T01:31:29.228Z,8.84
2022-09-21T01:34:03.130Z,8.73
2022-09-21T01:36:33.118Z,8.81
2022-09-21T01:39:06.823Z,8.61
2022-09-21T01:41:36.689Z,8.77
2022-09-21T01:44:12.284Z,8.76
2022-09-21T01:46:41.058Z,8.71
2022-09-21T01:49:14.128Z,8.72
2022-09-21T01:51:47.551Z,8.76
2022-09-21T01:54:21.861Z,8.71
2022-09-21T01:56:56.600Z,8.82
2022-09-21T01:59:32.913Z,8.79
2022-09-21T02:02:06.207Z,8.70
2022-09-21T02:04:36.371Z,8.34
2022-09-21T02:07:04.569Z,8.58
2022-09-21T02:09:33.558Z,8.48
2022-09-21T02:12:02.342Z,8.51
2022-09-21T02:14:34.770Z,8.44
2022-09-21T02:17:09.532Z,8.49
2022-09-21T02:19:44.864Z,8.42
2022-09-21T02:22:17.044Z,8.49
2022-09-21T02:24:47.663Z,8.67
2022-09-21T02:27:25.480Z,8.65
2022-09-21T02:30:04.029Z,8.58
2022-09-21T02:32:39.533Z,8.71
2022-09-21T02:35:17.462Z,8.51
2022-09-21T02:37:49.878Z,8.51
2022-09-21T02:40:26.869Z,8.43
2022-09-21T02:42:59.818Z,8.45
2022-09-21T02:45:34.491Z,8.34
2022-09-21T02:48:07.339Z,8.37
2022-09-21T02:50:40.312Z,7.49
2022-09-21T02:53:10.308Z,8.31
2022-09-21T02:55:39.796Z,8.33
2022-09-21T02:58:11.678Z,8.28
2022-09-21T03:00:41.842Z,8.23
2022-09-21T03:03:18.680Z,8.20
2022-09-21T03:05:49.801Z,8.17
2022-09-21T03:08:18.495Z,8.14
2022-09-21T03:10:46.951Z,8.13
2022-09-21T03:13:15.286Z,7.73
2022-09-21T03:15:45.898Z,7.96
2022-09-21T03:18:15.258Z,8.05
2022-09-21T03:20:46.799Z,7.58
2022-09-21T03:23:15.416Z,8.04
2022-09-21T03:25:46.257Z,8.12
2022-09-21T03:28:14.948Z,8.20
2022-09-21T03:30:44.967Z,7.66
2022-09-21T03:33:13.969Z,8.10
2022-09-21T03:35:42.298Z,8.19
2022-09-21T03:38:10.555Z,8.18
2022-09-21T03:40:39.024Z,8.16
2022-09-21T03:43:07.178Z,8.16
2022-09-21T03:45:35.970Z,7.97
2022-09-21T03:48:05.590Z,8.01
2022-09-21T03:50:33.914Z,8.07
2022-09-21T03:53:02.082Z,8.08
2022-09-21T03:55:31.312Z,8.06
2022-09-21T03:57:59.450Z,8.06
2022-09-21T04:00:27.611Z,7.95
2022-09-21T04:02:55.740Z,7.94
2022-09-21T04:05:25.374Z,8.00
2022-09-21T04:07:53.492Z,7.91
2022-09-21T04:10:29.561Z,7.85
2022-09-21T04:12:59.259Z,7.60
2022-09-21T04:15:27.340Z,7.85
2022-09-21T04:17:55.640Z,7.83
2022-09-21T04:20:25.331Z,7.87
2022-09-21T04:22:53.483Z,7.87
2022-09-21T04:25:21.711Z,7.89
2022-09-21T04:27:49.809Z,7.84
2022-09-21T04:30:18.354Z,7.87
2022-09-21T04:32:46.651Z,7.84
2022-09-21T04:35:14.832Z,7.86
2022-09-21T04:37:44.356Z,7.91
2022-09-21T04:40:12.477Z,7.85
2022-09-21T04:42:40.634Z,7.69
2022-09-21T04:45:09.920Z,7.89
2022-09-21T04:47:38.134Z,7.73
2022-09-21T04:50:07.316Z,7.85
2022-09-21T04:52:35.430Z,7.82
2022-09-21T04:55:05.371Z,7.82
2022-09-21T04:57:33.638Z,7.84
2022-09-21T05:00:01.859Z,7.87
2022-09-21T05:02:29.920Z,7.88
2022-09-21T05:04:58.422Z,7.81
2022-09-21T05:07:26.494Z,7.96
2022-09-21T05:10:05.530Z,8.02
2022-09-21T05:12:40.878Z,8.17
2022-09-21T05:15:11.583Z,8.18
2022-09-21T05:17:39.653Z,8.37
2022-09-21T05:20:08.273Z,8.53
2022-09-21T05:22:36.376Z,8.59
2022-09-21T05:25:04.684Z,8.73
2022-09-21T05:27:34.611Z,8.84
2022-09-21T05:30:03.347Z,8.86
2022-09-21T05:32:44.293Z,8.22
2022-09-21T05:35:23.832Z,9.02
2022-09-21T05:37:58.777Z,9.15
2022-09-21T05:40:27.685Z,9.30
2022-09-21T05:42:57.931Z,9.40
2022-09-21T05:45:28.916Z,9.52
2022-09-21T05:48:16.992Z,9.50
2022-09-21T05:50:57.287Z,9.80
2022-09-21T05:53:51.687Z,9.95
2022-09-21T05:56:41.810Z,10.13
2022-09-21T05:59:38.235Z,10.29
2022-09-21T06:02:16.995Z,10.34
2022-09-21T06:04:45.790Z,10.51
2022-09-21T06:07:13.910Z,10.68
2022-09-21T06:09:43.288Z,10.82
2022-09-21T06:12:11.992Z,10.93
2022-09-21T06:14:42.144Z,11.02
2022-09-21T06:17:10.381Z,11.08
2022-09-21T06:19:38.491Z,11.39
2022-09-21T06:22:06.679Z,11.61
2022-09-21T06:24:34.830Z,11.74
2022-09-21T06:27:02.903Z,11.90
2022-09-21T06:29:31.030Z,12.01
2022-09-21T06:32:01.161Z,12.28
2022-09-21T06:34:29.672Z,12.41
2022-09-21T06:36:57.931Z,12.53
2022-09-21T06:39:26.204Z,12.48
2022-09-21T06:41:54.332Z,12.75
2022-09-21T06:44:22.394Z,12.85
2022-09-21T06:46:50.534Z,13.03
2022-09-21T06:49:20.010Z,12.57
2022-09-21T06:51:49.011Z,12.93
2022-09-21T06:54:17.619Z,13.16
2022-09-21T06:56:45.862Z,13.15
2022-09-21T06:59:14.132Z,13.12
2022-09-21T07:01:42.360Z,13.10
2022-09-21T07:04:10.778Z,13.17
2022-09-21T07:06:40.271Z,13.17
2022-09-21T07:11:56.385Z,13.49
2022-09-21T07:14:24.529Z,13.66
2022-09-21T07:16:53.970Z,13.81
2022-09-21T07:19:22.068Z,13.81
2022-09-21T07:21:52.468Z,13.99
2022-09-21T07:24:20.572Z,14.09
2022-09-21T07:26:49.516Z,14.17
2022-09-21T07:29:17.671Z,14.10
2022-09-21T07:31:46.164Z,14.24
2022-09-21T07:34:14.320Z,14.39
2022-09-21T07:36:42.913Z,14.35
2022-09-21T07:39:12.603Z,14.38
2022-09-21T07:41:40.762Z,14.53
2022-09-21T07:44:08.831Z,14.59
2022-09-21T07:46:41.241Z,14.61
2022-09-21T07:49:13.630Z,14.62
2022-09-21T07:51:41.771Z,14.85
2022-09-21T07:54:11.238Z,14.88
2022-09-21T07:56:40.788Z,14.66
2022-09-21T07:59:08.874Z,14.27
2022-09-21T08:01:39.267Z,14.28
2022-09-21T08:04:09.661Z,14.47
2022-09-21T08:06:40.338Z,14.59
2022-09-21T08:09:09.935Z,14.62
2022-09-21T08:11:39.259Z,14.78
2022-09-21T08:14:08.722Z,14.98
2022-09-21T08:16:39.969Z,15.06
2022-09-21T08:19:08.301Z,15.08
2022-09-21T08:21:36.668Z,14.90
2022-09-21T08:24:05.060Z,15.21
2022-09-21T08:26:33.656Z,15.21
2022-09-21T08:29:01.738Z,15.35
2022-09-21T08:31:31.320Z,15.37
2022-09-21T08:34:00.880Z,15.35
2022-09-21T08:36:29.036Z,15.18
2022-09-21T08:38:57.297Z,15.35
2022-09-21T08:41:36.632Z,15.29
2022-09-21T08:44:12.508Z,15.44
2022-09-21T08:46:44.654Z,15.59
2022-09-21T08:49:17.258Z,15.64
2022-09-21T08:51:52.032Z,15.61
2022-09-21T08:54:28.610Z,15.52
2022-09-21T08:57:05.953Z,15.61
2022-09-21T08:59:35.481Z,15.84
2022-09-21T09:02:23.929Z,15.99
2022-09-21T09:04:59.548Z,15.97
2022-09-21T09:07:49.401Z,15.82
2022-09-21T09:10:35.318Z,15.99
2022-09-21T09:13:18.299Z,15.97
2022-09-21T09:15:55.791Z,15.94
2022-09-21T09:18:40.204Z,15.95
2022-09-21T09:21:25.923Z,16.13
2022-09-21T09:24:00.618Z,16.36
2022-09-21T09:26:35.258Z,16.35
2022-09-21T09:29:14.198Z,15.99
2022-09-21T09:31:43.105Z,15.89
2022-09-21T09:34:18.148Z,15.75
2022-09-21T09:36:59.171Z,15.64
2022-09-21T09:39:31.046Z,15.56
2022-09-21T09:42:14.083Z,15.55
2022-09-21T09:45:00.737Z,15.86
2022-09-21T09:47:42.478Z,15.86
2022-09-21T09:50:14.818Z,15.81
2022-09-21T09:52:45.408Z,15.64
2022-09-21T09:55:20.390Z,15.53
2022-09-21T09:57:49.535Z,15.77
2022-09-21T10:00:21.428Z,15.95
2022-09-21T10:02:51.922Z,16.23
2022-09-21T10:05:26.972Z,16.46
2022-09-21T10:07:55.071Z,16.65
2022-09-21T10:10:28.009Z,16.86
2022-09-21T10:12:57.711Z,17.11
2022-09-21T10:15:26.220Z,17.21
2022-09-21T10:18:02.290Z,17.29
2022-09-21T10:20:33.154Z,17.56
2022-09-21T10:23:02.250Z,17.36
2022-09-21T10:25:33.207Z,16.93
2022-09-21T10:28:06.258Z,16.89
2022-09-21T10:30:38.666Z,17.03
2022-09-21T10:33:20.658Z,17.03
2022-09-21T10:35:54.732Z,16.76
2022-09-21T10:38:28.853Z,16.92
2022-09-21T10:40:57.064Z,16.84
2022-09-21T10:43:28.278Z,16.66
2022-09-21T10:45:58.538Z,16.62
2022-09-21T10:48:29.298Z,16.54
2022-09-21T10:50:59.498Z,16.63
2022-09-21T10:53:29.881Z,16.55
2022-09-21T10:56:15.603Z,16.24
2022-09-21T10:59:12.411Z,16.39
2022-09-21T11:01:45.520Z,16.36
2022-09-21T11:04:17.191Z,16.38
2022-09-21T11:06:51.138Z,16.26
2022-09-21T11:09:23.699Z,16.31
2022-09-21T11:11:58.379Z,16.29
2022-09-21T11:14:44.810Z,16.26
2022-09-21T11:17:18.821Z,16.22
2022-09-21T11:19:52.527Z,16.34
2022-09-21T11:22:33.967Z,16.25
2022-09-21T11:25:11.491Z,15.97
2022-09-21T11:27:44.172Z,16.43
2022-09-21T11:30:14.338Z,16.53
2022-09-21T11:33:11.558Z,16.64
2022-09-21T11:35:48.974Z,16.61
2022-09-21T11:38:33.755Z,16.92
2022-09-21T11:41:19.477Z,17.27
2022-09-21T11:44:03.533Z,17.61
2022-09-21T11:46:38.259Z,17.83
2022-09-21T11:49:28.120Z,18.25
2022-09-21T11:52:13.502Z,18.33
2022-09-21T11:54:58.715Z,18.57
2022-09-21T11:57:31.252Z,18.81
2022-09-21T12:00:16.632Z,18.63
2022-09-21T12:03:11.873Z,18.66
2022-09-21T12:05:46.579Z,18.59
2022-09-21T12:08:30.218Z,18.92
2022-09-21T12:11:07.498Z,19.13
2022-09-21T12:13:42.062Z,19.23
2022-09-21T12:16:19.658Z,19.20
2022-09-21T12:18:56.284Z,19.29
2022-09-21T12:21:27.838Z,19.58
2022-09-21T12:23:58.333Z,19.63
2022-09-21T12:26:33.489Z,19.86
2022-09-21T12:29:05.879Z,19.97
2022-09-21T12:31:41.141Z,19.82
2022-09-21T12:34:16.781Z,19.60
2022-09-21T12:36:48.972Z,19.93
2022-09-21T12:39:26.321Z,19.68
2022-09-21T12:42:02.138Z,19.58
2022-09-21T12:44:52.275Z,19.32
2022-09-21T12:47:25.612Z,18.95
2022-09-21T12:49:58.811Z,18.71
2022-09-21T12:52:28.784Z,19.08
2022-09-21T12:55:06.769Z,19.14
2022-09-21T12:58:14.496Z,18.86
2022-09-21T13:00:50.897Z,19.33
2022-09-21T13:03:27.232Z,19.97
2022-09-21T13:06:30.628Z,20.00
2022-09-21T13:09:05.113Z,19.76
2022-09-21T13:11:36.373Z,19.51
2022-09-21T13:14:06.561Z,19.75
2022-09-21T13:16:38.616Z,19.77
2022-09-21T13:19:18.198Z,20.24
2022-09-21T13:21:46.378Z,20.65
2022-09-21T13:24:28.752Z,20.93
2022-09-21T13:27:06.730Z,20.55
2022-09-21T13:29:38.278Z,20.51
2022-09-21T13:32:24.037Z,20.12
2022-09-21T13:34:52.428Z,20.36
2022-09-21T13:37:33.499Z,20.65
2022-09-21T13:40:41.614Z,20.31
2022-09-21T13:43:59.723Z,20.11
2022-09-21T13:46:51.811Z,20.61
2022-09-21T13:49:29.341Z,20.04
2022-09-21T13:52:02.027Z,19.83
2022-09-21T13:54:35.376Z,19.22
2022-09-21T13:57:17.097Z,19.04
2022-09-21T13:59:47.071Z,18.70
2022-09-21T14:02:33.200Z,19.20
2022-09-21T14:05:08.278Z,19.06
2022-09-21T14:07:37.217Z,19.20
2022-09-21T14:10:08.458Z,19.37
2022-09-21T14:12:45.304Z,19.13
2022-09-21T14:15:39.219Z,19.59
2022-09-21T14:18:48.122Z,19.99
2022-09-21T14:21:19.558Z,19.51
2022-09-21T14:24:10.539Z,19.94
2022-09-21T14:26:52.223Z,20.77
2022-09-21T14:29:25.431Z,21.80
2022-09-21T14:31:57.495Z,22.76
2022-09-21T14:34:28.921Z,23.14
2022-09-21T14:37:03.261Z,22.64
2022-09-21T14:39:35.266Z,22.99
2022-09-21T14:42:12.730Z,22.52
2022-09-21T14:44:42.737Z,21.91
2022-09-21T14:47:31.378Z,23.28
2022-09-21T14:50:15.380Z,24.38
2022-09-21T14:53:00.041Z,23.68
2022-09-21T14:55:34.357Z,23.08
2022-09-21T14:58:25.039Z,22.33
2022-09-21T15:00:54.774Z,21.89
2022-09-21T15:03:46.667Z,21.81
2022-09-21T15:06:43.291Z,22.21
2022-09-21T15:10:04.292Z,25.05
2022-09-21T15:12:42.713Z,26.91
2022-09-21T15:15:29.698Z,27.30
2022-09-21T15:17:59.878Z,28.11
2022-09-21T15:20:30.231Z,26.66
2022-09-21T15:22:59.978Z,24.93
2022-09-21T15:25:33.477Z,22.67
2022-09-21T15:28:02.132Z,21.52
2022-09-21T15:30:33.956Z,20.34
2022-09-21T15:33:03.792Z,19.38
2022-09-21T15:35:33.934Z,18.72
2022-09-21T15:38:02.673Z,18.05
2022-09-21T15:40:34.029Z,17.85
2022-09-21T15:43:05.860Z,17.48
2022-09-21T15:45:45.003Z,17.11
2022-09-21T15:48:13.679Z,16.76
2022-09-21T15:50:43.702Z,16.25
2022-09-21T15:53:21.992Z,16.33
2022-09-21T15:55:52.548Z,16.18
2022-09-21T15:58:37.427Z,15.77
2022-09-21T16:01:11.656Z,15.58
2022-09-21T16:03:40.707Z,15.69
2022-09-21T16:06:29.233Z,15.64
2022-09-21T16:08:57.449Z,15.39
2022-09-21T16:11:37.934Z,15.34
2022-09-21T16:14:29.519Z,14.66
2022-09-21T16:17:23.982Z,15.15
2022-09-21T16:20:20.017Z,15.08
2022-09-21T16:22:50.770Z,14.84
2022-09-21T16:25:38.497Z,14.91
2022-09-21T16:28:29.542Z,14.35
2022-09-21T16:30:59.345Z,14.72
2022-09-21T16:33:44.819Z,14.66
2022-09-21T16:36:38.097Z,14.51
2022-09-21T16:39:14.910Z,13.88
2022-09-21T16:41:50.518Z,14.29
2022-09-21T16:44:22.961Z,14.34
2022-09-21T16:47:00.344Z,14.30
2022-09-21T16:49:33.671Z,14.39
2022-09-21T16:52:02.031Z,14.34
2022-09-21T16:54:30.939Z,14.10
2022-09-21T16:57:00.656Z,13.89
2022-09-21T16:59:30.855Z,14.31
2022-09-21T17:02:00.598Z,14.22
2022-09-21T17:04:31.314Z,14.14
2022-09-21T17:07:00.556Z,13.93
2022-09-21T17:09:32.587Z,13.54
2022-09-21T17:12:01.730Z,13.95
2022-09-21T17:14:35.565Z,13.88
2022-09-21T17:17:08.562Z,13.92
2022-09-21T17:19:37.231Z,13.93
2022-09-21T17:22:07.133Z,13.88
2022-09-21T17:24:50.212Z,13.66
2022-09-21T17:27:21.336Z,13.61
2022-09-21T17:29:53.933Z,12.92
2022-09-21T17:32:24.274Z,13.55
2022-09-21T17:34:58.929Z,13.57
2022-09-21T17:37:27.429Z,13.35
2022-09-21T17:39:55.579Z,13.36
2022-09-21T17:42:26.064Z,13.23
2022-09-21T17:45:04.649Z,12.78
2022-09-21T17:47:34.139Z,13.26
2022-09-21T17:50:19.668Z,13.19
2022-09-21T17:53:05.974Z,12.94
2022-09-21T17:55:34.810Z,13.00
2022-09-21T17:58:28.218Z,12.95
2022-09-21T18:01:02.357Z,12.87
2022-09-21T18:03:36.012Z,12.83
2022-09-21T18:06:04.872Z,12.73
2022-09-21T18:08:34.768Z,12.84
2022-09-21T18:11:18.679Z,12.66
2022-09-21T18:13:55.438Z,12.55
2022-09-21T18:16:37.438Z,11.77
2022-09-21T18:19:19.022Z,12.41
2022-09-21T18:21:51.061Z,12.14
2022-09-21T18:24:27.415Z,12.45
2022-09-21T18:26:58.852Z,12.38
2022-09-21T18:29:46.001Z,11.97
2022-09-21T18:32:41.203Z,12.01
2022-09-21T18:35:25.331Z,11.96
2022-09-21T18:38:10.641Z,11.82
2022-09-21T18:40:49.094Z,11.64
2022-09-21T18:43:27.700Z,11.30
2022-09-21T18:46:02.628Z,11.78
2022-09-21T18:48:50.581Z,11.29
2022-09-21T18:51:25.196Z,11.51
2022-09-21T18:53:56.163Z,11.43
2022-09-21T18:56:26.368Z,11.45
2022-09-21T18:58:56.194Z,11.07
2022-09-21T19:01:27.332Z,11.49
2022-09-21T19:03:57.841Z,11.43
2022-09-21T19:06:39.771Z,11.34
2022-09-21T19:09:23.228Z,11.22
2022-09-21T19:12:00.134Z,11.19
2022-09-21T19:14:38.565Z,11.17
2022-09-21T19:17:18.021Z,11.12
2022-09-21T19:20:14.392Z,10.94
2022-09-21T19:22:49.558Z,10.91
2022-09-21T19:25:28.380Z,10.77
2022-09-21T19:28:01.930Z,10.99
2022-09-21T19:30:30.678Z,11.02
2022-09-21T19:33:00.659Z,10.98
2022-09-21T19:35:32.099Z,11.10
2022-09-21T19:38:03.008Z,11.24
2022-09-21T19:40:33.534Z,11.15
2022-09-21T19:43:21.303Z,11.16
2022-09-21T19:46:05.743Z,11.14
2022-09-21T19:48:43.226Z,11.11
2022-09-21T19:51:19.435Z,11.08
2022-09-21T19:54:12.741Z,10.94
2022-09-21T19:57:05.902Z,10.91
2022-09-21T19:59:47.405Z,10.77
2022-09-21T20:02:20.313Z,10.23
2022-09-21T20:04:56.982Z,10.64
2022-09-21T20:07:44.663Z,10.52
2022-09-21T20:10:51.944Z,10.70
2022-09-21T20:13:32.412Z,10.54
2022-09-21T20:16:08.068Z,10.67
2022-09-21T20:18:43.488Z,10.54
2022-09-21T20:21:15.117Z,10.51
2022-09-21T20:23:50.088Z,10.33
2022-09-21T20:26:24.984Z,10.38
2022-09-21T20:28:54.079Z,10.17
2022-09-21T20:31:23.818Z,9.70
2022-09-21T20:33:52.087Z,9.72
2022-09-21T20:36:21.161Z,10.41
2022-09-21T20:38:50.814Z,10.36
2022-09-21T20:41:19.495Z,10.30
2022-09-21T20:43:47.748Z,10.19
2022-09-21T20:46:16.071Z,9.92
2022-09-21T20:48:44.600Z,10.06
2022-09-21T20:51:13.221Z,10.12
2022-09-21T20:53:42.458Z,10.16
2022-09-21T20:56:13.370Z,9.35
2022-09-21T20:58:41.464Z,10.09
2022-09-21T21:01:10.920Z,10.07
2022-09-21T21:03:39.192Z,10.16
2022-09-21T21:06:12.171Z,10.11
2022-09-21T21:08:40.743Z,10.14
2022-09-21T21:11:10.217Z,9.60
2022-09-21T21:13:40.617Z,10.05
2022-09-21T21:16:12.084Z,10.10
2022-09-21T21:18:41.552Z,10.04
2022-09-21T21:21:10.312Z,9.96
2022-09-21T21:23:52.408Z,9.99
2022-09-21T21:26:20.716Z,9.96
2022-09-21T21:28:52.933Z,9.93
2022-09-21T21:31:21.642Z,9.81
2022-09-21T21:33:49.822Z,9.93
2022-09-21T21:36:17.959Z,9.72
2022-09-21T21:38:46.150Z,9.88
2022-09-21T21:41:15.109Z,7.98
2022-09-21T21:43:44.778Z,9.85
2022-09-21T21:46:14.543Z,9.93
2022-09-21T21:48:42.833Z,9.97
2022-09-21T21:51:11.050Z,9.96
2022-09-21T21:53:41.183Z,9.63
2022-09-21T21:56:11.151Z,9.87
2022-09-21T21:58:40.250Z,9.97
2022-09-21T22:01:10.193Z,9.74
2022-09-21T22:03:40.234Z,9.82
2022-09-21T22:06:10.400Z,9.92
2022-09-21T22:08:39.924Z,9.98
2022-09-21T22:11:08.649Z,9.66
2022-09-21T22:13:38.582Z,9.53
2022-09-21T22:16:09.187Z,9.83
2022-09-21T22:18:39.934Z,9.63
2022-09-21T22:21:11.331Z,9.77
2022-09-21T22:23:40.159Z,9.66
2022-09-21T22:26:11.408Z,9.72
2022-09-21T22:28:41.279Z,9.70
2022-09-21T22:31:11.069Z,9.64
2022-09-21T22:33:41.088Z,9.77
2022-09-21T22:36:11.390Z,9.65
2022-09-21T22:38:42.952Z,9.58
2022-09-21T22:41:13.192Z,9.56
2022-09-21T22:43:42.092Z,9.62
2022-09-21T22:46:10.351Z,9.62
2022-09-21T22:48:38.541Z,9.58
2022-09-21T22:51:08.211Z,9.65
2022-09-21T22:53:36.438Z,9.58
2022-09-21T22:56:07.179Z,9.62
2022-09-21T22:58:37.576Z,9.55
2022-09-21T23:01:07.537Z,9.58
2022-09-21T23:03:36.975Z,9.14
2022-09-21T23:06:05.949Z,9.57
2022-09-21T23:08:35.692Z,9.46
2022-09-21T23:11:08.841Z,9.46
2022-09-21T23:13:37.235Z,9.43
2022-09-21T23:16:06.350Z,9.39
2022-09-21T23:18:35.055Z,9.43
2022-09-21T23:21:05.897Z,9.40
2022-09-21T23:23:35.900Z,9.34
2022-09-21T23:26:09.598Z,9.03
2022-09-21T23:28:39.411Z,9.13
2022-09-21T23:31:10.175Z,8.89
2022-09-21T23:33:40.012Z,8.72
2022-09-21T23:36:10.015Z,9.07
2022-09-21T23:38:40.072Z,9.09
2022-09-21T23:41:10.362Z,9.00
2022-09-21T23:43:40.439Z,8.94
2022-09-21T23:46:09.659Z,8.88
2022-09-21T23:48:38.291Z,8.86
2022-09-21T23:51:07.553Z,8.80
2022-09-21T23:53:36.552Z,8.60
2022-09-21T23:56:07.659Z,8.77
2022-09-21T23:58:35.899Z,8.59
